HMMO2: Washita River Near Hammon, OK

Data processed at Thu May 23 2019 23:50


All information presented herein is the property of the government of the United States of America and may be revised or deleted at any time without prior notice.
Dissemination of this information without the expressed written consent of the Public Affairs Office, Tulsa District U.S. Army Corps of Engineers is strictly prohibited.
These data are gathered electronically and, as presented, have not undergone any form of quality control. These data are not guaranteed to be valid or correct.
Go to home page.
Go to station list.
Go to home page.

Upstream stations:

Downstream station:
Previous Day
Next Day
Current Day
    
SHEF ID:       HMMO2     Washita River near Hammon, OK
STATION TYPE:  
Regulating: Stage =    22.00, Flow =     2507

               PRECIP     STAGE  STAGE(2)  RIV-FLOW  BAT-LOAD
                   in        ft        ft       cfs      volt
              Ccp-Rev   Ccp-Rev   Ccp-Rev   Ccp-Rev   Ccp-Rev
(US/Central)
05/23 00:00      0.00     16.79     16.54      1173     12.41
05/23 01:00      0.00     16.89     16.47      1190     12.41
05/23 02:00      0.00     17.07     16.40      1220     12.41
05/23 03:00      0.00     16.97     16.32      1203     12.33
05/23 04:00      0.00     16.94     16.25      1198     12.33
05/23 05:00      0.00     16.85     16.19      1183     12.33
05/23 06:00      0.00     16.50     16.13      1125     12.33
05/23 07:00      0.00     16.44     16.07      1115     12.33
05/23 08:00      0.00     16.47     16.00      1120     12.33
05/23 09:00      0.00     16.28     15.93      1088     12.41
05/23 10:00      0.00     16.29     15.85      1090     12.41
05/23 11:00      0.00     16.22     15.78      1078     12.73
05/23 12:00      0.00     16.15     15.71      1067     12.81
05/23 13:00      0.00     15.99     15.62      1041     12.65
05/23 14:00      0.00     16.04     15.55      1049     12.49
05/23 15:00      0.00     15.89     15.47      1025     12.65
05/23 16:00      0.00     15.79     15.38      1008     12.57
05/23 17:00      0.00     15.65     15.29       986     12.73
05/23 18:00      0.00     15.56     15.20       972     12.65
05/23 19:00      0.00     15.48     15.12       959     12.49
05/23 20:00      0.00     15.41     15.03       948     12.41
05/23 21:00      0.00     15.33     14.94       935     12.41
05/23 22:00      0.00     15.20     14.85       915     12.33
05/23 23:00      0.00     15.12     14.76       903     12.33